Time;durP1;ratioP1;P1;durP2;ratioP2;P2;SDS_P1;SDS_P2;PMS_P1;PMS_P2;Temp;Humidity;BMP_temperature;BMP_pressure;BME280_temperature;BME280_humidity;BME280_pressure;Samples;Min_cycle;Max_cycle;Signal;HPM_P1;HPM_P2
2022/12/19 00:02:03;;;;;;;;;17.75;16.50;;;;;6.94;70.59;101571.22;4998963;28;45520;-78
2022/12/19 00:04:29;;;;;;;;;19.25;17.25;;;;;6.94;70.47;101552.00;4997394;28;45349;-78
2022/12/19 00:06:57;;;;;;;;;23.00;16.00;;;;;7.03;70.34;101568.84;4998859;28;45528;-77
2022/12/19 00:09:23;;;;;;;;;21.00;19.75;;;;;7.06;70.40;101541.84;4998343;28;45881;-77
2022/12/19 00:11:49;;;;;;;;;19.50;17.75;;;;;6.98;70.33;101532.94;4995810;28;45686;-77
2022/12/19 00:14:14;;;;;;;;;20.75;18.50;;;;;7.05;70.23;101548.78;4986343;28;45519;-77
2022/12/19 00:16:40;;;;;;;;;21.75;18.00;;;;;7.07;70.05;101531.38;4979721;28;45524;-77
2022/12/19 00:19:05;;;;;;;;;18.75;17.50;;;;;7.12;70.01;101546.34;4997249;28;47203;-77
2022/12/19 00:21:32;;;;;;;;;19.25;16.50;;;;;7.16;69.97;101538.56;4983979;28;45388;-77
2022/12/19 00:23:58;;;;;;;;;20.75;18.50;;;;;7.16;70.08;101535.94;4996836;28;45357;-77
2022/12/19 00:26:26;;;;;;;;;16.75;14.75;;;;;7.21;70.24;101554.41;4980358;28;45444;-77
2022/12/19 00:28:54;;;;;;;;;21.50;19.00;;;;;7.28;69.98;101540.59;4986967;28;47653;-78
2022/12/19 00:31:21;;;;;;;;;18.75;14.75;;;;;7.20;69.69;101522.09;4982123;28;45393;-77
2022/12/19 00:33:48;;;;;;;;;18.00;16.25;;;;;7.37;69.67;101550.38;4973865;28;45287;-78
2022/12/19 00:36:19;;;;;;;;;20.25;15.00;;;;;7.41;69.96;101536.53;4979770;28;45351;-78
2022/12/19 00:38:45;;;;;;;;;20.00;16.25;;;;;7.44;69.98;101533.97;4989165;28;47458;-79
2022/12/19 00:41:20;;;;;;;;;16.75;15.50;;;;;7.35;69.35;101512.78;4980482;28;45206;-78
2022/12/19 00:43:57;;;;;;;;;17.25;15.75;;;;;7.42;69.59;101514.72;4980379;28;45298;-78
2022/12/19 00:46:23;;;;;;;;;19.00;15.25;;;;;7.39;69.21;101485.84;4990070;28;45414;-78
2022/12/19 00:48:48;;;;;;;;;20.00;15.75;;;;;7.46;69.41;101493.84;4978663;28;47443;-78
2022/12/19 00:51:20;;;;;;;;;11.00;11.00;;;;;7.52;69.26;101493.09;4984380;28;45363;-78
2022/12/19 00:53:47;;;;;;;;;15.25;14.25;;;;;7.54;69.34;101504.50;4974638;28;45191;-78
2022/12/19 00:56:16;;;;;;;;;17.75;14.75;;;;;7.63;69.00;101507.31;4976335;28;45887;-78
2022/12/19 00:58:42;;;;;;;;;17.50;16.00;;;;;7.53;69.24;101476.50;4977358;28;46358;-78
2022/12/19 01:01:12;;;;;;;;;17.25;14.25;;;;;7.60;68.95;101488.91;4977582;28;45754;-78
2022/12/19 01:03:38;;;;;;;;;14.75;11.50;;;;;7.73;68.97;101493.53;4959938;28;45405;-78
2022/12/19 01:06:04;;;;;;;;;14.75;11.50;;;;;7.67;68.86;101490.78;4977738;28;45560;-78
2022/12/19 01:08:30;;;;;;;;;16.75;14.25;;;;;7.77;69.28;101497.09;4991429;28;47691;-78
2022/12/19 01:10:55;;;;;;;;;16.25;14.75;;;;;7.78;68.60;101488.38;4989323;28;45709;-78
2022/12/19 01:13:23;;;;;;;;;14.25;14.25;;;;;7.78;68.88;101496.25;4980151;28;45459;-78
2022/12/19 01:15:49;;;;;;;;;12.50;12.25;;;;;7.81;68.84;101479.72;4969013;28;45938;-78
2022/12/19 01:18:14;;;;;;;;;17.25;14.25;;;;;7.79;68.93;101484.03;4982468;28;47228;-78
2022/12/19 01:20:42;;;;;;;;;10.00;9.25;;;;;7.91;68.78;101494.72;4980091;28;45447;-78
2022/12/19 01:23:09;;;;;;;;;11.50;11.50;;;;;7.91;68.80;101494.72;4979882;28;45223;-78
2022/12/19 01:25:37;;;;;;;;;11.00;11.00;;;;;8.03;68.54;101497.59;4979885;28;45464;-78
2022/12/19 01:28:04;;;;;;;;;14.75;12.25;;;;;8.01;68.37;101495.81;4999681;28;47171;-78
2022/12/19 01:30:29;;;;;;;;;15.50;13.25;;;;;8.03;68.31;101486.22;4978185;28;45465;-78
2022/12/19 01:32:56;;;;;;;;;9.00;9.00;;;;;8.09;68.42;101513.44;4983298;28;45306;-78
2022/12/19 01:35:22;;;;;;;;;11.25;10.00;;;;;8.09;68.48;101495.09;4981646;28;45318;-78
2022/12/19 01:37:49;;;;;;;;;13.00;11.50;;;;;8.00;68.06;101488.81;4983585;28;45432;-79
2022/12/19 01:40:15;;;;;;;;;9.50;9.25;;;;;8.08;68.31;101468.84;4981720;28;45357;-78
2022/12/19 01:42:40;;;;;;;;;12.00;12.00;;;;;8.18;68.49;101497.00;4965304;28;45405;-78
2022/12/19 01:45:06;;;;;;;;;14.75;10.75;;;;;8.18;68.12;101489.16;4982788;28;45412;-78
2022/12/19 01:47:45;;;;;;;;;12.50;11.00;;;;;8.15;68.41;101489.97;4982763;28;46254;-78
2022/12/19 01:50:14;;;;;;;;;16.25;14.00;;;;;8.03;68.14;101489.72;4982886;28;45468;-78
2022/12/19 01:52:41;;;;;;;;;16.00;15.50;;;;;8.04;68.09;101473.13;4999928;28;45412;-78
2022/12/19 01:55:08;;;;;;;;;16.50;15.50;;;;;8.03;68.02;101502.84;4981183;28;45521;-78
2022/12/19 01:57:33;;;;;;;;;14.25;13.75;;;;;8.02;68.26;101500.19;4980931;28;47936;-78
2022/12/19 02:00:02;;;;;;;;;17.75;17.25;;;;;8.00;68.69;101509.78;4964990;28;45417;-78
2022/12/19 02:02:32;;;;;;;;;16.25;15.00;;;;;8.06;68.23;101516.00;4982710;28;45182;-78
2022/12/19 02:04:57;;;;;;;;;9.25;5.50;;;;;7.93;68.45;101495.66;4982706;28;45412;-78
2022/12/19 02:07:25;;;;;;;;;15.00;14.25;;;;;7.97;68.52;101499.25;4964631;28;47390;-78
2022/12/19 02:09:54;;;;;;;;;17.25;16.00;;;;;8.03;68.67;101515.97;5006658;28;45226;-78
2022/12/19 02:12:20;;;;;;;;;15.25;12.75;;;;;7.97;68.70;101507.97;5002111;28;45392;-78
2022/12/19 02:14:46;;;;;;;;;14.50;14.50;;;;;8.03;68.88;101497.59;4988665;28;45536;-78
2022/12/19 02:17:30;;;;;;;;;16.00;14.50;;;;;8.06;68.67;101529.13;4993261;28;46703;-78
2022/12/19 02:20:26;;;;;;;;;16.25;14.00;;;;;8.08;68.89;101505.56;4980259;28;45821;-78
2022/12/19 02:23:00;;;;;;;;;13.25;12.75;;;;;8.08;68.84;101503.81;5001968;28;45505;-79
2022/12/19 02:25:52;;;;;;;;;12.75;11.75;;;;;8.09;69.09;101504.69;5001974;28;45428;-78
2022/12/19 02:28:26;;;;;;;;;14.00;12.25;;;;;8.12;69.11;101494.25;4972703;28;46481;-79
2022/12/19 02:30:51;;;;;;;;;14.75;14.75;;;;;8.10;69.28;101494.25;4980734;28;45982;-78
2022/12/19 02:33:33;;;;;;;;;10.50;10.50;;;;;8.13;69.15;101507.41;5001488;28;45243;-78
2022/12/19 02:36:11;;;;;;;;;19.50;15.50;;;;;8.08;69.39;101495.06;5001527;28;45314;-78
2022/12/19 02:38:46;;;;;;;;;15.25;12.50;;;;;8.13;69.46;101496.91;4983905;28;46531;-78
2022/12/19 02:41:21;;;;;;;;;12.25;12.00;;;;;8.13;69.67;101501.28;5001361;28;45519;-79
2022/12/19 02:43:50;;;;;;;;;13.75;12.00;;;;;8.16;69.54;101502.22;5001784;28;45277;-77
2022/12/19 02:46:18;;;;;;;;;14.00;12.50;;;;;8.21;69.60;101507.56;5001305;28;45460;-78
2022/12/19 02:48:44;;;;;;;;;13.50;12.50;;;;;8.20;69.62;101508.38;5001073;28;46227;-77
2022/12/19 02:51:09;;;;;;;;;15.25;10.25;;;;;8.23;69.60;101503.19;4983753;28;45436;-78
2022/12/19 02:53:36;;;;;;;;;14.50;11.00;;;;;8.22;69.79;101492.69;5002028;28;45377;-77
2022/12/19 02:56:10;;;;;;;;;10.00;10.00;;;;;8.29;70.02;101500.72;4983086;28;45174;-77
2022/12/19 02:58:47;;;;;;;;;11.50;11.50;;;;;8.33;69.92;101502.50;4981830;28;46393;-78
2022/12/19 03:01:21;;;;;;;;;9.25;9.00;;;;;8.38;70.18;101489.47;4968676;28;45298;-78
2022/12/19 03:04:16;;;;;;;;;14.00;14.00;;;;;8.29;70.22;101492.84;4979480;28;45492;-77
2022/12/19 03:06:51;;;;;;;;;10.75;10.00;;;;;8.38;70.17;101484.22;4988106;28;45210;-78
2022/12/19 03:09:35;;;;;;;;;6.75;3.50;;;;;8.47;69.96;101491.41;5007093;28;45478;-77
2022/12/19 03:12:11;;;;;;;;;10.75;9.75;;;;;8.45;70.13;101485.28;4983719;28;45283;-78
2022/12/19 03:14:36;;;;;;;;;9.75;8.50;;;;;8.36;70.13;101439.59;4981849;28;45234;-77
2022/12/19 03:17:07;;;;;;;;;10.25;10.25;;;;;8.38;70.29;101447.50;4992942;28;45232;-78
2022/12/19 03:19:34;;;;;;;;;11.00;9.75;;;;;8.48;70.62;101459.09;4992342;28;46875;-77
2022/12/19 03:22:00;;;;;;;;;9.75;8.75;;;;;8.61;70.47;101480.28;5001088;28;45494;-77
2022/12/19 03:24:26;;;;;;;;;13.75;12.00;;;;;8.60;70.80;101491.63;5001106;28;45307;-77
2022/12/19 03:26:51;;;;;;;;;8.75;8.50;;;;;8.66;70.37;101488.25;5002725;28;45183;-77
2022/12/19 03:29:48;;;;;;;;;11.00;11.00;;;;;8.68;70.64;101491.75;5008016;28;45432;-77
2022/12/19 03:32:16;;;;;;;;;9.75;9.75;;;;;8.67;70.49;101481.25;4980129;28;45398;-77
2022/12/19 03:34:51;;;;;;;;;9.00;9.00;;;;;8.61;70.69;101471.53;4994243;28;45424;-77
2022/12/19 03:37:21;;;;;;;;;11.75;10.75;;;;;8.64;70.37;101481.22;4963812;28;45448;-77
2022/12/19 03:39:54;;;;;;;;;12.00;11.50;;;;;8.67;70.56;101470.75;5000483;28;46380;-77
2022/12/19 03:45:10;;;;;;;;;10.75;10.75;;;;;8.65;70.58;101489.09;4980965;28;45209;-77
2022/12/19 03:47:50;;;;;;;;;9.75;9.75;;;;;8.72;70.71;101497.97;4980788;28;45593;-77
2022/12/19 03:50:16;;;;;;;;;9.75;9.00;;;;;8.70;70.32;101499.66;4980881;28;46442;-77
2022/12/19 03:53:00;;;;;;;;;11.50;10.50;;;;;8.67;70.33;101469.00;4998508;28;45262;-77
2022/12/19 03:55:37;;;;;;;;;9.50;9.50;;;;;8.73;70.79;101497.97;4986651;28;45235;-76
2022/12/19 03:58:11;;;;;;;;;11.25;11.00;;;;;8.76;70.90;101497.13;4981059;28;45222;-77
2022/12/19 04:00:41;;;;;;;;;10.25;10.25;;;;;8.74;70.63;101486.63;4979698;28;45540;-77
2022/12/19 04:03:08;;;;;;;;;15.00;12.25;;;;;8.73;70.54;101491.84;4979393;28;45447;-77
2022/12/19 04:05:37;;;;;;;;;11.00;8.25;;;;;8.75;70.03;101484.88;4980827;28;45370;-77
2022/12/19 04:08:08;;;;;;;;;9.25;9.25;;;;;8.78;70.20;101503.31;4988276;28;45432;-77
2022/12/19 04:11:03;;;;;;;;;14.25;11.50;;;;;8.74;70.22;101491.88;4982058;28;46375;-77
2022/12/19 04:13:36;;;;;;;;;8.25;8.25;;;;;8.81;70.25;101504.22;4993562;28;45254;-76
2022/12/19 04:16:18;;;;;;;;;9.25;9.25;;;;;8.88;70.32;101512.22;4971499;28;45373;-77
2022/12/19 04:18:50;;;;;;;;;14.50;12.75;;;;;8.86;70.19;101493.78;4982919;28;45523;-77
2022/12/19 04:21:32;;;;;;;;;10.00;9.00;;;;;8.79;69.97;101468.28;4994620;28;45236;-77
2022/12/19 04:24:06;;;;;;;;;11.50;11.50;;;;;8.84;70.19;101482.38;4982433;28;45596;-77
2022/12/19 04:26:35;;;;;;;;;11.75;11.00;;;;;8.82;69.93;101474.50;4999847;28;45468;-77
2022/12/19 04:29:03;;;;;;;;;11.00;9.00;;;;;8.86;70.07;101482.41;5000076;28;45301;-77
2022/12/19 04:31:30;;;;;;;;;9.50;8.50;;;;;8.94;69.88;101492.16;4978590;28;47594;-77
2022/12/19 04:33:55;;;;;;;;;9.00;9.00;;;;;8.97;69.91;101496.59;4992776;28;45422;-77
2022/12/19 04:36:21;;;;;;;;;11.00;10.00;;;;;8.97;69.88;101491.34;4978837;28;45314;-77
2022/12/19 04:38:46;;;;;;;;;15.25;11.75;;;;;8.96;69.85;101493.09;4993067;28;45269;-77
2022/12/19 04:41:12;;;;;;;;;11.25;9.00;;;;;8.99;70.16;101493.13;4999539;28;45548;-77
2022/12/19 04:43:37;;;;;;;;;12.25;9.75;;;;;8.99;70.01;101487.00;5000184;28;45384;-77
2022/12/19 04:46:03;;;;;;;;;8.00;7.50;;;;;9.05;69.58;101493.22;4999659;28;45386;-77
2022/12/19 04:48:28;;;;;;;;;12.00;10.75;;;;;9.04;69.87;101501.97;4982225;28;45467;-77
2022/12/19 04:50:55;;;;;;;;;8.50;8.50;;;;;9.09;69.95;101494.16;4998341;28;47115;-77
2022/12/19 04:53:20;;;;;;;;;7.75;7.75;;;;;9.03;69.84;101488.78;4988862;28;45374;-77
2022/12/19 04:55:45;;;;;;;;;10.75;10.25;;;;;9.03;69.80;101478.28;4962270;28;45536;-77
2022/12/19 04:58:11;;;;;;;;;13.00;9.25;;;;;9.07;69.78;101484.47;4969052;28;45353;-77
2022/12/19 05:00:37;;;;;;;;;13.00;10.75;;;;;9.08;69.66;101484.50;4992608;28;46487;-77
2022/12/19 05:03:03;;;;;;;;;12.75;9.50;;;;;9.11;69.67;101483.66;4978715;28;45442;-77
2022/12/19 05:05:28;;;;;;;;;12.25;11.00;;;;;9.17;69.41;101481.13;4980298;28;45220;-77
2022/12/19 05:07:56;;;;;;;;;10.25;10.25;;;;;9.11;69.50;101478.41;4985324;28;45219;-77
2022/12/19 05:10:22;;;;;;;;;11.00;10.00;;;;;9.11;69.27;101471.41;4998905;28;46349;-77
2022/12/19 05:12:47;;;;;;;;;11.50;9.50;;;;;9.17;69.68;101482.00;4982698;28;45430;-77
2022/12/19 05:15:13;;;;;;;;;11.25;9.25;;;;;9.12;69.57;101469.69;5013163;28;45345;-77
2022/12/19 05:17:38;;;;;;;;;12.00;9.25;;;;;9.17;69.96;101468.88;4992829;28;45273;-77
2022/12/19 05:20:04;;;;;;;;;12.00;10.25;;;;;9.18;69.52;101478.50;4979037;28;47358;-77
2022/12/19 05:22:30;;;;;;;;;8.75;8.50;;;;;9.22;69.60;101480.34;4993735;28;45434;-77
2022/12/19 05:24:55;;;;;;;;;9.25;9.00;;;;;9.16;69.58;101479.34;5001373;28;45608;-77
2022/12/19 05:27:21;;;;;;;;;9.25;7.75;;;;;9.14;69.62;101467.94;5007870;28;45411;-77
2022/12/19 05:29:46;;;;;;;;;7.75;5.75;;;;;9.20;69.47;101483.81;5005808;28;45505;-77
2022/12/19 05:32:11;;;;;;;;;11.00;10.00;;;;;9.18;69.52;101483.75;5001621;28;45405;-77
2022/12/19 05:34:37;;;;;;;;;7.25;7.25;;;;;9.25;69.38;101492.63;5002721;28;45213;-78
2022/12/19 05:37:02;;;;;;;;;10.00;6.75;;;;;9.19;69.33;101498.66;4985078;28;45496;-77
2022/12/19 05:39:28;;;;;;;;;9.50;6.00;;;;;9.22;69.68;101489.94;5001228;28;47299;-77
2022/12/19 05:41:54;;;;;;;;;9.75;8.75;;;;;9.25;69.31;101504.00;5002625;28;45222;-77
2022/12/19 05:44:19;;;;;;;;;9.75;9.00;;;;;9.27;69.29;101498.75;5002647;28;45277;-77
2022/12/19 05:46:45;;;;;;;;;4.00;4.00;;;;;9.29;69.63;101497.03;5002512;28;45538;-77
2022/12/19 05:49:10;;;;;;;;;9.25;9.25;;;;;9.26;69.63;101487.38;5002342;28;46520;-77
2022/12/19 05:51:36;;;;;;;;;9.75;8.00;;;;;9.25;69.40;101480.38;5002505;28;45300;-77
2022/12/19 05:54:02;;;;;;;;;10.75;7.50;;;;;9.33;69.24;101496.25;4985761;28;45464;-77
2022/12/19 05:56:28;;;;;;;;;6.00;6.00;;;;;9.27;69.44;101483.91;4982708;28;45368;-77
2022/12/19 05:58:53;;;;;;;;;12.00;12.00;;;;;9.26;69.41;101484.75;4964980;28;47696;-77
2022/12/19 06:01:24;;;;;;;;;15.75;13.25;;;;;9.29;69.52;101491.78;4981218;28;45407;-77
2022/12/19 06:03:50;;;;;;;;;12.75;12.00;;;;;9.22;69.66;101493.47;4986497;28;45504;-77
2022/12/19 06:06:19;;;;;;;;;9.75;9.75;;;;;9.26;69.68;101502.25;5002230;28;45305;-77
2022/12/19 06:08:44;;;;;;;;;17.75;15.50;;;;;9.18;69.82;101496.03;5007103;28;46389;-77
2022/12/19 06:11:11;;;;;;;;;18.25;18.25;;;;;9.18;69.95;101493.41;4991275;28;45495;-78
2022/12/19 06:13:37;;;;;;;;;17.00;14.00;;;;;9.12;69.96;101490.69;4982462;28;45225;-77
2022/12/19 06:16:09;;;;;;;;;16.50;15.75;;;;;9.07;70.24;101492.38;4990938;28;45612;-78
2022/12/19 06:18:35;;;;;;;;;21.00;18.00;;;;;8.97;70.35;101486.97;4983237;28;45440;-77
2022/12/19 06:21:03;;;;;;;;;18.25;18.00;;;;;8.92;70.21;101490.38;4982212;28;45299;-78
2022/12/19 06:23:31;;;;;;;;;18.50;16.75;;;;;8.94;70.47;101496.53;4981668;28;45235;-77
2022/12/19 06:25:58;;;;;;;;;18.00;15.50;;;;;8.85;70.54;101489.41;4994493;28;45540;-77
2022/12/19 06:28:25;;;;;;;;;18.50;16.50;;;;;8.82;70.76;101481.47;5010138;28;45447;-77
2022/12/19 06:30:54;;;;;;;;;24.50;19.00;;;;;8.83;70.82;101489.38;4988536;28;45273;-78
2022/12/19 06:33:19;;;;;;;;;22.00;18.00;;;;;8.70;70.86;101465.56;4989112;28;45242;-78
2022/12/19 06:35:44;;;;;;;;;19.75;15.50;;;;;8.69;71.29;101469.91;4988117;28;45524;-76
2022/12/19 06:38:10;;;;;;;;;18.00;15.75;;;;;8.70;70.81;101476.91;4968072;28;46967;-77
2022/12/19 06:43:26;;;;;;;;;15.25;12.00;;;;;8.61;70.97;101461.03;4991627;28;46576;-77
2022/12/19 06:45:51;;;;;;;;;13.50;11.00;;;;;8.63;71.47;101468.91;4981468;28;45570;-76
2022/12/19 06:48:17;;;;;;;;;9.75;9.75;;;;;8.74;71.17;101484.00;4980616;28;46923;-77
2022/12/19 06:50:42;;;;;;;;;9.50;9.00;;;;;8.66;71.21;101462.00;4998081;28;45447;-77
2022/12/19 06:53:08;;;;;;;;;11.00;9.00;;;;;8.63;71.24;101469.81;5001783;28;45503;-77
2022/12/19 06:55:36;;;;;;;;;10.00;10.00;;;;;8.70;70.78;101471.66;5001441;28;45257;-77
2022/12/19 06:58:01;;;;;;;;;12.50;9.50;;;;;8.71;71.13;101457.69;4993210;28;46352;-77
2022/12/19 07:00:26;;;;;;;;;11.25;10.00;;;;;8.75;70.71;101472.63;4981530;28;45325;-77
2022/12/19 07:02:53;;;;;;;;;5.75;5.75;;;;;8.78;70.92;101474.41;4981982;28;45445;-77
2022/12/19 07:05:18;;;;;;;;;10.50;10.50;;;;;8.72;70.95;101464.72;4981607;28;45433;-78
2022/12/19 07:07:44;;;;;;;;;10.75;9.00;;;;;8.81;71.09;101475.34;4989270;28;47652;-80
2022/12/19 07:10:10;;;;;;;;;10.00;10.00;;;;;8.84;70.83;101477.13;5006200;28;45377;-78
2022/12/19 07:12:35;;;;;;;;;11.00;9.75;;;;;8.81;70.86;101487.59;4982566;28;45483;-79
2022/12/19 07:15:00;;;;;;;;;10.00;10.00;;;;;8.81;70.84;101477.09;4994290;28;45270;-79
2022/12/19 07:17:27;;;;;;;;;15.25;12.00;;;;;8.74;70.80;101476.13;4992960;28;46550;-79
2022/12/19 07:19:55;;;;;;;;;8.50;8.50;;;;;8.82;70.85;101489.34;4963882;28;45245;-80
2022/12/19 07:22:21;;;;;;;;;12.00;10.00;;;;;8.79;70.79;101487.59;4964118;28;45561;-79
2022/12/19 07:24:47;;;;;;;;;10.00;10.00;;;;;8.81;70.76;101477.97;4996794;28;45447;-80
2022/12/19 07:27:13;;;;;;;;;12.00;10.50;;;;;8.84;70.62;101487.63;5000747;28;48031;-79
2022/12/19 07:29:39;;;;;;;;;10.25;10.00;;;;;8.83;70.63;101484.13;5002886;28;45365;-79
2022/12/19 07:32:04;;;;;;;;;9.75;9.75;;;;;8.77;70.83;101477.91;4981525;28;45356;-76
2022/12/19 07:34:30;;;;;;;;;13.00;10.25;;;;;8.80;70.42;101483.22;4977769;28;45431;-76
2022/12/19 07:36:55;;;;;;;;;7.75;7.25;;;;;8.90;70.93;101494.72;5000638;28;45326;-77
2022/12/19 07:39:20;;;;;;;;;7.25;7.25;;;;;8.92;70.56;101501.75;4985400;28;45222;-76
2022/12/19 07:41:46;;;;;;;;;8.00;8.00;;;;;8.92;70.48;101493.00;4969471;28;45271;-76
2022/12/19 07:44:12;;;;;;;;;9.25;9.25;;;;;8.95;70.27;101496.56;4994085;28;45228;-76
2022/12/19 07:46:37;;;;;;;;;9.75;9.75;;;;;8.97;70.51;101493.97;4980870;28;45477;-76
2022/12/19 07:49:03;;;;;;;;;8.75;8.25;;;;;8.96;70.10;101485.22;4963202;28;45360;-76
2022/12/19 07:51:28;;;;;;;;;8.25;8.25;;;;;8.95;69.87;101479.91;4997694;28;45416;-75
2022/12/19 07:53:54;;;;;;;;;8.25;8.25;;;;;9.01;69.66;101496.66;4998825;28;45289;-75
2022/12/19 07:56:19;;;;;;;;;9.50;9.25;;;;;9.03;69.65;101504.53;4979171;28;47156;-76
2022/12/19 07:58:45;;;;;;;;;9.25;9.00;;;;;9.08;69.54;101525.63;4980306;28;45191;-76
2022/12/19 08:01:11;;;;;;;;;10.00;9.25;;;;;9.09;69.62;101507.28;4962874;28;45516;-76
2022/12/19 08:03:36;;;;;;;;;8.50;8.00;;;;;9.05;69.36;101513.34;4975011;28;45602;-76
2022/12/19 08:06:04;;;;;;;;;9.75;9.75;;;;;9.09;69.53;101506.38;4999632;28;46443;-76
2022/12/19 08:08:29;;;;;;;;;13.25;11.50;;;;;9.08;69.20;101510.75;5005549;28;45439;-77
2022/12/19 08:10:56;;;;;;;;;12.50;10.50;;;;;9.12;69.20;101523.09;4991668;28;45308;-77
2022/12/19 08:13:21;;;;;;;;;10.75;10.00;;;;;9.14;69.25;101520.47;4962605;28;45412;-77
2022/12/19 08:15:47;;;;;;;;;10.00;9.50;;;;;9.16;69.09;101526.63;4988891;28;45395;-77
2022/12/19 08:18:12;;;;;;;;;10.50;10.50;;;;;9.17;69.10;101520.53;4981751;28;45190;-78
2022/12/19 08:20:38;;;;;;;;;10.00;10.00;;;;;9.21;69.01;101522.34;4990707;28;45238;-79
2022/12/19 08:23:03;;;;;;;;;13.25;11.00;;;;;9.22;68.87;101534.59;4978907;28;46037;-78
2022/12/19 08:25:29;;;;;;;;;8.00;6.75;;;;;9.22;68.88;101526.72;4980260;28;45381;-79
2022/12/19 08:27:54;;;;;;;;;9.00;9.00;;;;;9.23;68.71;101520.63;4998465;28;45234;-87
2022/12/19 08:30:19;;;;;;;;;11.00;9.25;;;;;9.17;68.64;101502.16;4991249;28;45306;-76
2022/12/19 08:32:45;;;;;;;;;11.25;8.75;;;;;9.26;68.59;101513.66;4995778;28;45151;-78
2022/12/19 08:35:10;;;;;;;;;9.50;9.50;;;;;9.33;68.65;101514.63;4990868;28;45467;-77
2022/12/19 08:37:36;;;;;;;;;7.75;7.00;;;;;9.35;68.39;101512.88;4980215;28;45414;-77
2022/12/19 08:40:01;;;;;;;;;12.75;12.25;;;;;9.41;68.04;101509.44;4962671;28;45394;-77
2022/12/19 08:42:27;;;;;;;;;9.00;9.00;;;;;9.44;68.01;101496.38;4979033;28;45607;-77
2022/12/19 08:44:52;;;;;;;;;11.00;10.50;;;;;9.47;67.86;101510.44;4982761;28;45500;-77
2022/12/19 08:47:18;;;;;;;;;9.00;7.50;;;;;9.56;67.93;101525.44;4997316;28;45465;-77
2022/12/19 08:49:43;;;;;;;;;11.50;8.50;;;;;9.63;67.64;101519.41;4987381;28;45400;-74
2022/12/19 08:52:08;;;;;;;;;7.00;7.00;;;;;9.68;67.63;101528.22;5005029;28;45475;-77
2022/12/19 08:54:34;;;;;;;;;5.75;5.75;;;;;9.65;67.48;101517.69;5005126;28;45463;-78
2022/12/19 08:56:59;;;;;;;;;8.75;5.00;;;;;9.69;67.53;101508.06;5004032;28;45467;-77
2022/12/19 08:59:25;;;;;;;;;7.25;7.25;;;;;9.77;67.32;101503.78;4986533;28;45899;-77
2022/12/19 09:01:50;;;;;;;;;7.50;7.50;;;;;9.82;67.09;101507.34;5002966;28;45452;-77
2022/12/19 09:04:16;;;;;;;;;8.75;8.75;;;;;9.94;66.79;101511.88;4998153;28;45896;-77
2022/12/19 09:06:41;;;;;;;;;8.75;6.25;;;;;9.98;66.92;101502.28;4980499;28;45279;-77
2022/12/19 09:09:07;;;;;;;;;8.75;8.25;;;;;9.95;66.65;101503.13;5007011;28;45356;-77
2022/12/19 09:11:33;;;;;;;;;5.25;5.00;;;;;10.05;66.49;101505.00;5003035;28;45390;-76
2022/12/19 09:13:58;;;;;;;;;9.50;7.00;;;;;10.02;66.42;101504.06;5004272;28;45731;-76
2022/12/19 09:16:26;;;;;;;;;9.00;9.00;;;;;10.11;66.25;101510.31;5002042;28;45298;-75
2022/12/19 09:18:54;;;;;;;;;5.75;5.75;;;;;10.14;66.33;101520.00;5001093;28;45431;-76
2022/12/19 09:21:24;;;;;;;;;8.25;7.50;;;;;10.19;66.07;101515.66;5003546;28;45588;-76
2022/12/19 09:23:54;;;;;;;;;6.25;6.25;;;;;10.23;66.08;101516.56;4975156;28;46850;-76
2022/12/19 09:26:21;;;;;;;;;10.75;10.75;;;;;10.26;65.77;101508.69;4985866;28;45900;-75
2022/12/19 09:28:47;;;;;;;;;12.00;10.00;;;;;10.19;65.68;101504.25;5012884;28;45278;-77
2022/12/19 09:31:18;;;;;;;;;6.00;6.00;;;;;10.29;65.92;101522.81;4986235;28;46151;-77
2022/12/19 09:33:45;;;;;;;;;11.25;9.25;;;;;10.28;65.26;101534.19;4994650;28;46476;-78
2022/12/19 09:36:16;;;;;;;;;7.25;7.25;;;;;10.35;65.69;101543.06;4994805;28;45282;-78
2022/12/19 09:38:41;;;;;;;;;9.75;9.75;;;;;10.28;65.47;101542.09;5003047;28;45444;-78
2022/12/19 09:41:19;;;;;;;;;12.00;11.00;;;;;10.34;65.23;101554.44;4989662;28;45761;-77
2022/12/19 09:44:02;;;;;;;;;6.50;6.50;;;;;10.33;65.37;101552.69;4982076;28;48282;-78
2022/12/19 09:46:38;;;;;;;;;9.25;9.25;;;;;10.34;65.08;101557.06;4984269;28;45438;-78
2022/12/19 09:49:11;;;;;;;;;11.00;11.00;;;;;10.30;65.33;101556.16;5003279;28;45490;-77
2022/12/19 09:51:45;;;;;;;;;10.00;10.00;;;;;10.30;65.07;101553.53;5004460;28;45431;-77
2022/12/19 09:54:22;;;;;;;;;9.50;6.75;;;;;10.29;65.09;101553.50;5000775;28;45595;-78
2022/12/19 09:56:55;;;;;;;;;9.50;9.00;;;;;10.29;65.20;101550.88;5000905;28;45472;-77
2022/12/19 09:59:43;;;;;;;;;11.75;7.50;;;;;10.29;64.97;101545.59;4969134;28;45529;-76
2022/12/19 10:02:23;;;;;;;;;11.75;8.50;;;;;10.29;64.95;101546.50;4997101;28;45395;-78
2022/12/19 10:05:14;;;;;;;;;11.50;11.50;;;;;10.30;65.23;101534.22;4981924;28;47255;-77
2022/12/19 10:07:39;;;;;;;;;7.75;7.00;;;;;10.27;64.90;101534.16;4989777;28;45370;-77
2022/12/19 10:10:05;;;;;;;;;8.00;8.00;;;;;10.29;65.06;101533.34;5003605;28;45552;-77
2022/12/19 10:12:46;;;;;;;;;8.00;8.00;;;;;10.35;64.95;101541.28;4996431;28;45577;-77
2022/12/19 10:15:34;;;;;;;;;8.25;7.75;;;;;10.34;65.00;101531.66;4995823;28;45526;-78
2022/12/19 10:18:14;;;;;;;;;5.25;4.25;;;;;10.44;64.76;101529.97;4999128;28;45412;-78
2022/12/19 10:20:49;;;;;;;;;7.25;7.25;;;;;10.45;64.71;101530.84;5000545;28;45135;-78
2022/12/19 10:23:17;;;;;;;;;7.50;7.50;;;;;10.49;64.63;101525.63;5004874;28;45333;-77
2022/12/19 10:25:51;;;;;;;;;10.00;10.00;;;;;10.46;64.73;101516.84;4999660;28;46124;-77
2022/12/19 10:28:45;;;;;;;;;5.00;5.00;;;;;10.52;64.68;101511.63;5008308;28;45474;-77
2022/12/19 10:31:17;;;;;;;;;7.00;6.75;;;;;10.58;64.59;101516.91;4982354;28;45522;-76
2022/12/19 10:34:17;;;;;;;;;8.50;7.00;;;;;10.58;64.78;101517.84;4979146;28;45292;-77
2022/12/19 10:36:48;;;;;;;;;7.00;7.00;;;;;10.62;64.72;101524.00;4999983;28;45546;-75
2022/12/19 10:39:32;;;;;;;;;5.25;5.25;;;;;10.65;64.51;101520.50;4997779;28;45388;-76
2022/12/19 10:42:16;;;;;;;;;9.50;5.75;;;;;10.67;64.41;101513.50;4994248;28;45722;-78
2022/12/19 10:44:42;;;;;;;;;7.25;6.25;;;;;10.73;64.49;101519.69;4997395;28;46456;-78
2022/12/19 10:47:14;;;;;;;;;6.00;6.00;;;;;10.69;64.27;101511.75;4998458;28;45630;-79
2022/12/19 10:49:39;;;;;;;;;7.00;7.00;;;;;10.69;64.30;101514.38;4998309;28;45483;-78
2022/12/19 10:52:09;;;;;;;;;7.25;7.00;;;;;10.76;64.26;101517.06;4996357;28;45409;-78
2022/12/19 10:54:35;;;;;;;;;7.50;6.50;;;;;10.84;64.25;101537.34;4999508;28;45391;-79
2022/12/19 10:57:19;;;;;;;;;6.75;5.75;;;;;10.84;64.32;101522.41;4999686;28;45454;-77
2022/12/19 11:00:03;;;;;;;;;6.75;5.50;;;;;10.87;63.96;101513.66;4992454;28;45342;-78
2022/12/19 11:02:43;;;;;;;;;7.25;6.25;;;;;10.86;64.21;101504.00;4998439;28;45445;-76
2022/12/19 11:05:22;;;;;;;;;8.75;7.00;;;;;10.92;64.16;101496.13;4994850;28;45498;-77
2022/12/19 11:08:06;;;;;;;;;6.50;6.50;;;;;10.98;64.10;101506.69;4999830;28;47313;-77
2022/12/19 11:10:46;;;;;;;;;5.00;5.00;;;;;10.93;63.85;101492.63;4968139;28;45291;-78
2022/12/19 11:13:39;;;;;;;;;6.00;5.00;;;;;11.00;64.17;101503.22;4981278;28;45437;-79
2022/12/19 11:16:06;;;;;;;;;5.25;5.25;;;;;10.98;64.22;101494.41;4987301;28;45375;-77
2022/12/19 11:18:39;;;;;;;;;8.00;6.25;;;;;11.04;64.17;101496.22;4997512;28;45678;-77
2022/12/19 11:21:25;;;;;;;;;4.25;4.25;;;;;11.01;64.33;101480.38;5000165;28;45416;-77
2022/12/19 11:24:16;;;;;;;;;2.00;1.25;;;;;11.13;64.13;101484.84;4993338;28;45575;-77
2022/12/19 11:26:47;;;;;;;;;4.50;4.25;;;;;11.17;64.15;101489.25;4987378;28;45551;-79
2022/12/19 11:29:18;;;;;;;;;5.75;5.00;;;;;11.25;64.14;101492.81;5006003;28;45730;-76
2022/12/19 11:31:46;;;;;;;;;4.00;4.00;;;;;11.29;64.03;101491.09;4993755;28;45446;-76
2022/12/19 11:34:22;;;;;;;;;4.75;3.75;;;;;11.33;63.87;101484.94;4981189;28;45466;-79
2022/12/19 11:37:12;;;;;;;;;2.75;2.75;;;;;11.32;63.76;101481.44;4988328;28;45489;-76
2022/12/19 11:39:47;;;;;;;;;3.75;3.00;;;;;11.36;63.91;101479.69;4997199;28;46926;-77